Weather at H.G.F. Heliport

Public forecast

Using degrees Fahrenheit for public forecast. Weather courtesy of forecast.io.

Closest aviation weather report (METAR) to H.G.F. Heliport

Closest report is Allentown Queen City Municipal Airport, 3.3 nm (6.0 km) E. Retrieved 2021/10/23 04:35 UTC (0 seconds ago):

KXLL 230435Z AUTO 00000KT 10SM CLR 10/08 A2995 RMK AO2

Closest aviation forecast (TAF) to H.G.F. Heliport

Closest forecast is Lehigh Valley International Airport, 7.4 nm (13.7 km) NE. Retrieved 2021-10-23 00:24 UTC (4 hours ago):

TAF KABE 222321Z 2300/2324 VRB03KT P6SM BKN060 FM230900 VRB02KT P6SM OVC040 FM231400 32005KT P6SM OVC040 TEMPO 2314/2316 OVC030 FM231800 27006KT P6SM BKN050